Terminal Aerodrome Forecast
Issued by NWS Charleston, WV

Current Version | Previous Version | Text Only | Print | Product List | Glossary Off
Versions: 1 2 3 4 5 6 7 8 9 10 11 12 13 14 15 16 17 18 19 20 21 22 23 24

000
FTUS41 KRLX 271458 AAA
TAFCRW
TAF AMD
KCRW 271458Z 2715/2812 19008KT P6SM OVC024
     FM271600 22009KT P6SM VCTS BKN060CB
     FM272200 24007KT P6SM BKN035
     FM280200 27008KT P6SM BKN050
     FM280500 27007KT P6SM BKN025=

USA.gov is the U.S. government's official web portal to all federal, state and local government web resources and services.